createdAt,value
2019-01-17T00:02:43.281Z,20.40
2019-01-17T00:05:27.253Z,19.77
2019-01-17T00:08:15.688Z,23.13
2019-01-17T00:11:00.325Z,20.97
2019-01-17T00:13:39.573Z,19.37
2019-01-17T00:16:38.475Z,20.07
2019-01-17T00:19:32.591Z,20.17
2019-01-17T00:22:38.983Z,22.27
2019-01-17T00:25:24.922Z,20.20
2019-01-17T00:28:10.853Z,18.73
2019-01-17T00:30:57.965Z,21.53
2019-01-17T00:33:49.434Z,19.20
2019-01-17T00:36:39.934Z,22.20
2019-01-17T00:39:28.862Z,18.20
2019-01-17T00:42:18.293Z,18.70
2019-01-17T00:45:05.296Z,16.80
2019-01-17T00:48:09.528Z,14.43
2019-01-17T00:50:55.338Z,15.77
2019-01-17T00:53:39.684Z,15.40
2019-01-17T00:56:26.892Z,19.90
2019-01-17T00:59:07.452Z,16.53
2019-01-17T01:02:04.644Z,18.47
2019-01-17T01:04:43.290Z,18.77
2019-01-17T01:07:31.864Z,18.10
2019-01-17T01:10:19.013Z,23.40
2019-01-17T01:13:00.578Z,18.13
2019-01-17T01:15:52.273Z,21.63
2019-01-17T01:18:48.204Z,19.33
2019-01-17T01:21:39.470Z,22.60
2019-01-17T01:24:27.798Z,21.63
2019-01-17T01:27:31.316Z,21.10
2019-01-17T01:30:18.561Z,20.13
2019-01-17T01:33:06.892Z,22.30
2019-01-17T01:36:13.565Z,20.63
2019-01-17T01:39:01.094Z,24.27
2019-01-17T01:42:04.782Z,20.60
2019-01-17T01:44:59.081Z,20.50
2019-01-17T01:47:46.728Z,20.80
2019-01-17T01:50:34.544Z,19.50
2019-01-17T01:53:06.932Z,24.27
2019-01-17T01:55:36.700Z,21.17
2019-01-17T01:58:06.705Z,21.40
2019-01-17T02:00:35.939Z,19.77
2019-01-17T02:03:05.561Z,19.07
2019-01-17T02:05:35.255Z,17.87
2019-01-17T02:08:04.929Z,18.50
2019-01-17T02:10:35.216Z,17.57
2019-01-17T02:13:04.636Z,17.10
2019-01-17T02:15:35.129Z,17.10
2019-01-17T02:18:04.488Z,16.47
2019-01-17T02:20:33.778Z,16.57
2019-01-17T02:23:03.346Z,15.43
2019-01-17T02:25:33.178Z,13.90
2019-01-17T02:28:02.631Z,13.80
2019-01-17T02:30:32.269Z,13.57
2019-01-17T02:33:01.490Z,14.00
2019-01-17T02:35:30.855Z,13.23
2019-01-17T02:38:00.255Z,13.17
2019-01-17T02:40:29.546Z,13.37
2019-01-17T02:42:59.070Z,12.97
2019-01-17T02:45:28.426Z,13.77
2019-01-17T02:47:58.216Z,13.67
2019-01-17T02:50:27.905Z,14.20
2019-01-17T02:52:57.537Z,12.50
2019-01-17T02:55:26.989Z,14.87
2019-01-17T02:57:56.367Z,14.63
2019-01-17T03:00:29.025Z,13.23
2019-01-17T03:02:58.625Z,14.23
2019-01-17T03:05:27.917Z,16.20
2019-01-17T03:07:57.346Z,15.40
2019-01-17T03:10:27.018Z,15.90
2019-01-17T03:12:56.629Z,17.03
2019-01-17T03:15:26.251Z,17.77
2019-01-17T03:17:55.853Z,18.37
2019-01-17T03:20:25.478Z,17.80
2019-01-17T03:22:55.514Z,21.43
2019-01-17T03:25:25.133Z,17.07
2019-01-17T03:27:54.417Z,20.37
2019-01-17T03:30:25.960Z,17.37
2019-01-17T03:32:55.350Z,17.63
2019-01-17T03:35:25.036Z,19.03
2019-01-17T03:37:55.437Z,20.40
2019-01-17T03:40:24.625Z,19.67
2019-01-17T03:42:54.013Z,17.43
2019-01-17T03:45:25.604Z,20.37
2019-01-17T03:47:54.964Z,20.33
2019-01-17T03:50:25.218Z,22.07
2019-01-17T03:52:55.212Z,19.80
2019-01-17T03:55:24.958Z,21.77
2019-01-17T03:57:56.265Z,19.90
2019-01-17T04:00:25.935Z,22.80
2019-01-17T04:02:55.529Z,21.40
2019-01-17T04:05:27.488Z,22.80
2019-01-17T04:07:56.739Z,23.20
2019-01-17T04:10:25.998Z,23.30
2019-01-17T04:12:57.444Z,23.17
2019-01-17T04:15:27.114Z,22.53
2019-01-17T04:17:56.729Z,25.40
2019-01-17T04:20:26.080Z,25.60
2019-01-17T04:22:55.746Z,24.73
2019-01-17T04:25:24.939Z,24.03
2019-01-17T04:27:54.301Z,23.13
2019-01-17T04:30:23.796Z,26.17
2019-01-17T04:32:53.504Z,24.37
2019-01-17T04:35:22.792Z,25.60
2019-01-17T04:37:52.092Z,25.23
2019-01-17T04:40:21.777Z,24.87
2019-01-17T04:42:51.116Z,25.87
2019-01-17T04:45:20.788Z,26.27
2019-01-17T04:47:50.153Z,24.90
2019-01-17T04:50:19.520Z,24.93
2019-01-17T04:52:48.910Z,25.67
2019-01-17T04:55:18.863Z,21.67
2019-01-17T04:57:48.956Z,23.60
2019-01-17T05:00:20.349Z,22.10
2019-01-17T05:02:51.258Z,23.60
2019-01-17T05:05:20.834Z,25.97
2019-01-17T05:07:50.059Z,22.30
2019-01-17T05:10:19.365Z,20.90
2019-01-17T05:12:48.933Z,20.93
2019-01-17T05:15:19.030Z,21.60
2019-01-17T05:17:48.504Z,20.43
2019-01-17T05:20:18.055Z,21.87
2019-01-17T05:22:50.546Z,21.10
2019-01-17T05:25:20.155Z,20.13
2019-01-17T05:27:49.784Z,19.37
2019-01-17T05:30:19.455Z,19.40
2019-01-17T05:32:49.432Z,17.73
2019-01-17T05:35:19.104Z,20.10
2019-01-17T05:37:48.411Z,19.47
2019-01-17T05:40:19.780Z,20.17
2019-01-17T05:42:49.053Z,18.07
2019-01-17T05:45:18.470Z,19.63
2019-01-17T05:47:47.729Z,20.67
2019-01-17T05:50:17.871Z,19.60
2019-01-17T05:52:47.261Z,25.07
2019-01-17T05:55:20.130Z,20.47
2019-01-17T05:57:47.716Z,22.17
2019-01-17T06:00:19.597Z,20.93
2019-01-17T06:02:49.249Z,20.40
2019-01-17T06:05:19.729Z,19.20
2019-01-17T06:07:49.017Z,22.47
2019-01-17T06:10:18.593Z,19.30
2019-01-17T06:12:47.957Z,23.53
2019-01-17T06:15:20.043Z,21.73
2019-01-17T06:17:49.305Z,21.27
2019-01-17T06:20:18.929Z,21.67
2019-01-17T06:22:48.946Z,21.17
2019-01-17T06:25:18.558Z,21.40
2019-01-17T06:27:48.166Z,19.60
2019-01-17T06:30:18.094Z,19.20
2019-01-17T06:32:47.322Z,20.80
2019-01-17T06:35:19.555Z,22.00
2019-01-17T06:37:48.860Z,20.87
2019-01-17T06:40:33.161Z,28.50
2019-01-17T06:43:02.497Z,23.10
2019-01-17T06:45:32.180Z,26.60
2019-01-17T06:48:01.618Z,21.43
2019-01-17T06:50:31.320Z,24.83
2019-01-17T06:53:00.547Z,21.63
2019-01-17T06:55:34.418Z,20.90
2019-01-17T06:58:01.153Z,19.27
2019-01-17T07:00:30.690Z,22.93
2019-01-17T07:03:00.298Z,21.10
2019-01-17T07:05:29.618Z,17.67
2019-01-17T07:07:59.869Z,20.90
2019-01-17T07:10:29.451Z,18.80
2019-01-17T07:12:58.811Z,17.90
2019-01-17T07:15:28.081Z,16.47
2019-01-17T07:17:57.745Z,21.33
2019-01-17T07:20:27.076Z,18.60
2019-01-17T07:22:56.293Z,21.90
2019-01-17T07:25:25.951Z,20.97
2019-01-17T07:27:55.666Z,19.17
2019-01-17T07:30:25.237Z,17.20
2019-01-17T07:32:54.511Z,15.83
2019-01-17T07:35:23.806Z,11.93
2019-01-17T07:37:55.726Z,14.70
2019-01-17T07:40:25.005Z,12.67
2019-01-17T07:42:54.380Z,11.77
2019-01-17T07:45:26.543Z,11.33
2019-01-17T07:47:56.204Z,9.90
2019-01-17T07:50:25.570Z,12.10
2019-01-17T07:52:56.656Z,13.13
2019-01-17T07:55:25.982Z,6.70
2019-01-17T07:57:55.268Z,8.10
2019-01-17T08:00:24.974Z,9.57
2019-01-17T08:02:54.227Z,14.37
2019-01-17T08:05:23.806Z,9.83
2019-01-17T08:07:53.319Z,10.47
2019-01-17T08:10:25.678Z,8.33
2019-01-17T08:12:56.678Z,9.13
2019-01-17T08:15:26.126Z,7.90
2019-01-17T08:17:56.096Z,6.53
2019-01-17T08:20:25.810Z,7.30
2019-01-17T08:22:55.476Z,8.87
2019-01-17T08:25:24.820Z,6.10
2019-01-17T08:27:54.212Z,6.13
2019-01-17T08:30:30.441Z,6.70
2019-01-17T08:33:01.222Z,4.90
2019-01-17T08:35:30.576Z,5.23
2019-01-17T08:38:00.014Z,4.73
2019-01-17T08:40:31.472Z,3.83
2019-01-17T08:43:01.141Z,4.07
2019-01-17T08:45:30.768Z,3.60
2019-01-17T08:48:00.320Z,4.10
2019-01-17T08:50:29.702Z,3.93
2019-01-17T08:52:59.067Z,3.50
2019-01-17T08:55:28.444Z,3.60
2019-01-17T08:57:57.816Z,3.67
2019-01-17T09:00:27.185Z,4.27
2019-01-17T09:02:56.607Z,4.20
2019-01-17T09:05:26.389Z,3.27
2019-01-17T09:07:56.045Z,3.77
2019-01-17T09:10:30.187Z,3.43
2019-01-17T09:12:59.568Z,4.77
2019-01-17T09:15:31.194Z,3.70
2019-01-17T09:18:00.775Z,6.13
2019-01-17T09:20:30.145Z,4.53
2019-01-17T09:22:59.431Z,4.83
2019-01-17T09:25:29.014Z,4.23
2019-01-17T09:27:58.739Z,5.17
2019-01-17T09:30:28.435Z,5.30
2019-01-17T09:32:57.733Z,6.37
2019-01-17T09:35:26.950Z,6.87
2019-01-17T09:37:56.742Z,5.80
2019-01-17T09:40:26.149Z,7.30
2019-01-17T09:42:55.514Z,7.07
2019-01-17T09:45:25.259Z,8.57
2019-01-17T09:47:54.669Z,7.70
2019-01-17T09:50:25.916Z,5.57
2019-01-17T09:52:55.395Z,5.00
2019-01-17T09:55:24.695Z,4.37
2019-01-17T09:57:53.964Z,4.20
2019-01-17T10:00:28.297Z,4.50
2019-01-17T10:02:57.778Z,4.80
2019-01-17T10:05:28.064Z,4.80
2019-01-17T10:07:58.081Z,5.73
2019-01-17T10:10:30.483Z,6.20
2019-01-17T10:12:59.734Z,6.63
2019-01-17T10:15:59.477Z,5.83
2019-01-17T10:19:02.914Z,5.30
2019-01-17T10:22:27.885Z,4.90
2019-01-17T10:25:33.647Z,5.70
2019-01-17T10:29:00.046Z,5.40
2019-01-17T10:32:41.271Z,5.80
2019-01-17T10:35:26.713Z,6.77
2019-01-17T10:38:36.025Z,7.33
2019-01-17T10:42:01.593Z,8.70
2019-01-17T10:45:10.328Z,9.03
2019-01-17T10:48:16.969Z,9.40
2019-01-17T10:51:23.538Z,10.37
2019-01-17T10:54:22.536Z,11.73
2019-01-17T10:57:19.911Z,10.37
2019-01-17T11:00:32.118Z,9.47
2019-01-17T11:03:48.049Z,8.57
2019-01-17T11:07:01.462Z,8.47
2019-01-17T11:10:16.530Z,9.23
2019-01-17T11:13:23.144Z,9.90
2019-01-17T11:16:34.232Z,9.93
2019-01-17T11:19:23.981Z,10.30
2019-01-17T11:22:27.438Z,11.00
2019-01-17T11:25:20.033Z,10.90
2019-01-17T11:28:31.840Z,11.67
2019-01-17T11:31:39.575Z,12.33
2019-01-17T11:34:36.199Z,12.67
2019-01-17T11:37:46.443Z,12.50
2019-01-17T11:40:57.396Z,11.37
2019-01-17T11:44:25.493Z,9.80
2019-01-17T11:47:40.634Z,8.60
2019-01-17T11:50:45.958Z,10.37
2019-01-17T11:54:14.740Z,8.43
2019-01-17T11:57:24.571Z,10.50
2019-01-17T12:00:25.438Z,8.00
2019-01-17T12:03:43.488Z,5.87
2019-01-17T12:06:13.196Z,8.07
2019-01-17T12:08:43.020Z,4.00
2019-01-17T12:11:12.339Z,3.53
2019-01-17T12:13:41.918Z,8.20
2019-01-17T12:16:11.278Z,7.10
2019-01-17T12:18:43.420Z,3.80
2019-01-17T12:21:12.762Z,4.80
2019-01-17T12:23:42.050Z,5.10
2019-01-17T12:26:11.361Z,6.93
2019-01-17T12:28:40.699Z,3.33
2019-01-17T12:31:09.985Z,10.67
2019-01-17T12:33:39.569Z,5.70
2019-01-17T12:36:09.053Z,6.60
2019-01-17T12:38:38.727Z,6.90
2019-01-17T12:41:09.483Z,2.40
2019-01-17T12:43:38.905Z,1.50
2019-01-17T12:46:08.191Z,2.00
2019-01-17T12:48:37.877Z,2.70
2019-01-17T12:51:07.280Z,2.27
2019-01-17T12:53:36.654Z,3.37
2019-01-17T12:56:06.109Z,6.90
2019-01-17T12:58:35.367Z,3.87
2019-01-17T13:01:05.021Z,5.40
2019-01-17T13:03:34.646Z,4.47
2019-01-17T13:06:04.304Z,3.63
2019-01-17T13:08:34.237Z,6.03
2019-01-17T13:11:04.955Z,4.47
2019-01-17T13:13:34.261Z,8.37
2019-01-17T13:16:04.601Z,6.63
2019-01-17T13:18:33.839Z,5.57
2019-01-17T13:21:03.446Z,6.13
2019-01-17T13:23:32.701Z,7.53
2019-01-17T13:26:01.985Z,5.57
2019-01-17T13:28:31.279Z,3.90
2019-01-17T13:31:00.829Z,3.77
2019-01-17T13:33:30.225Z,4.20
2019-01-17T13:35:59.507Z,3.67
2019-01-17T13:38:28.861Z,4.77
2019-01-17T13:40:58.657Z,5.27
2019-01-17T13:43:27.849Z,5.23
2019-01-17T13:45:57.205Z,7.10
2019-01-17T13:48:26.518Z,4.07
2019-01-17T13:50:55.961Z,6.40
2019-01-17T13:53:25.317Z,5.50
2019-01-17T13:55:54.700Z,6.10
2019-01-17T13:58:24.238Z,4.63
2019-01-17T14:00:53.508Z,16.83
2019-01-17T14:03:22.833Z,7.27
2019-01-17T14:05:52.218Z,6.43
2019-01-17T14:08:21.516Z,9.20
2019-01-17T14:10:50.971Z,9.30
2019-01-17T14:13:20.432Z,6.17
2019-01-17T14:15:49.730Z,7.53
2019-01-17T14:18:19.108Z,7.80
2019-01-17T14:20:48.396Z,10.37
2019-01-17T14:23:17.770Z,11.77
2019-01-17T14:25:47.266Z,9.93
2019-01-17T14:28:16.546Z,10.97
2019-01-17T14:30:46.407Z,8.83
2019-01-17T14:33:15.704Z,13.33
2019-01-17T14:35:45.054Z,9.77
2019-01-17T14:38:14.966Z,13.57
2019-01-17T14:40:44.768Z,11.57
2019-01-17T14:43:14.086Z,14.07
2019-01-17T14:45:43.429Z,8.87
2019-01-17T14:48:12.978Z,10.83
2019-01-17T14:50:42.264Z,11.30
2019-01-17T14:53:14.053Z,14.23
2019-01-17T14:55:43.343Z,10.40
2019-01-17T14:58:13.049Z,13.37
2019-01-17T15:00:42.414Z,12.30
2019-01-17T15:03:11.797Z,10.03
2019-01-17T15:05:41.140Z,13.30
2019-01-17T15:08:10.423Z,6.63
2019-01-17T15:10:41.678Z,6.80
2019-01-17T15:13:11.028Z,5.13
2019-01-17T15:15:40.705Z,4.93
2019-01-17T15:18:10.662Z,10.50
2019-01-17T15:20:40.019Z,7.57
2019-01-17T15:23:10.678Z,7.47
2019-01-17T15:25:39.994Z,7.07
2019-01-17T15:28:09.364Z,8.83
2019-01-17T15:30:38.635Z,6.00
2019-01-17T15:33:08.003Z,11.00
2019-01-17T15:35:37.402Z,9.00
2019-01-17T15:38:07.050Z,10.43
2019-01-17T15:40:36.917Z,8.23
2019-01-17T15:43:07.923Z,16.20
2019-01-17T15:45:37.290Z,7.17
2019-01-17T15:48:06.631Z,17.37
2019-01-17T15:50:36.139Z,13.50
2019-01-17T15:53:05.576Z,12.20
2019-01-17T15:55:34.978Z,11.83
2019-01-17T15:58:04.676Z,8.77
2019-01-17T16:00:34.351Z,11.20
2019-01-17T16:03:03.655Z,12.07
2019-01-17T16:05:33.418Z,7.10
2019-01-17T16:08:03.107Z,13.37
2019-01-17T16:10:32.471Z,9.50
2019-01-17T16:13:01.906Z,11.70
2019-01-17T16:15:31.661Z,10.00
2019-01-17T16:18:01.105Z,12.50
2019-01-17T16:20:30.863Z,8.83
2019-01-17T16:23:00.215Z,10.97
2019-01-17T16:25:29.415Z,13.20
2019-01-17T16:27:59.172Z,17.40
2019-01-17T16:30:31.196Z,12.33
2019-01-17T16:33:01.944Z,9.07
2019-01-17T16:35:32.015Z,11.27
2019-01-17T16:38:02.277Z,11.60
2019-01-17T16:40:31.757Z,11.10
2019-01-17T16:43:01.167Z,10.33
2019-01-17T16:45:35.417Z,8.37
2019-01-17T16:48:01.549Z,7.67
2019-01-17T16:50:30.858Z,10.70
2019-01-17T16:53:00.562Z,6.63
2019-01-17T16:55:29.938Z,9.10
2019-01-17T16:57:59.321Z,8.03
2019-01-17T17:00:40.634Z,8.93
2019-01-17T17:03:10.017Z,12.10
2019-01-17T17:05:43.043Z,8.70
2019-01-17T17:08:13.272Z,8.23
2019-01-17T17:10:42.988Z,15.83
2019-01-17T17:13:12.979Z,10.77
2019-01-17T17:15:42.355Z,13.23
2019-01-17T17:18:11.643Z,10.10
2019-01-17T17:20:41.018Z,13.60
2019-01-17T17:23:10.814Z,9.23
2019-01-17T17:25:40.058Z,11.13
2019-01-17T17:28:09.473Z,9.57
2019-01-17T17:30:39.086Z,10.03
2019-01-17T17:33:09.063Z,11.50
2019-01-17T17:35:38.992Z,11.27
2019-01-17T17:38:08.916Z,12.90
2019-01-17T17:40:38.242Z,11.80
2019-01-17T17:43:07.877Z,8.37
2019-01-17T17:45:37.917Z,10.53
2019-01-17T17:48:07.778Z,11.87
2019-01-17T17:50:37.108Z,13.77
2019-01-17T17:53:06.573Z,13.47
2019-01-17T17:55:35.859Z,12.20
2019-01-17T17:58:05.830Z,12.77
2019-01-17T18:00:51.664Z,12.00
2019-01-17T18:03:21.048Z,11.87
2019-01-17T18:05:50.949Z,16.93
2019-01-17T18:08:20.285Z,16.17
2019-01-17T18:10:50.203Z,11.67
2019-01-17T18:13:19.983Z,14.30
2019-01-17T18:15:49.450Z,14.03
2019-01-17T18:18:19.262Z,14.03
2019-01-17T18:20:48.555Z,16.20
2019-01-17T18:23:17.988Z,14.90
2019-01-17T18:25:47.355Z,14.13
2019-01-17T18:28:17.429Z,16.13
2019-01-17T18:30:47.136Z,15.13
2019-01-17T18:33:19.281Z,13.70
2019-01-17T18:35:48.654Z,20.10
2019-01-17T18:38:18.034Z,15.83
2019-01-17T18:40:47.487Z,15.77
2019-01-17T18:43:17.227Z,12.07
2019-01-17T18:45:46.898Z,10.30
2019-01-17T18:48:16.130Z,10.93
2019-01-17T18:50:45.618Z,8.93
2019-01-17T18:53:15.636Z,13.77
2019-01-17T18:55:44.947Z,17.40
2019-01-17T18:58:15.634Z,10.00
2019-01-17T19:00:45.413Z,9.00
2019-01-17T19:03:15.088Z,7.00
2019-01-17T19:05:44.439Z,7.50
2019-01-17T19:08:13.765Z,7.77
2019-01-17T19:10:43.378Z,10.50
2019-01-17T19:13:13.075Z,13.27
2019-01-17T19:15:42.481Z,9.90
2019-01-17T19:18:12.098Z,6.80
2019-01-17T19:20:43.134Z,8.43
2019-01-17T19:23:12.973Z,7.20
2019-01-17T19:25:42.418Z,10.63
2019-01-17T19:28:11.710Z,11.13
2019-01-17T19:30:41.990Z,11.30
2019-01-17T19:33:11.643Z,11.10
2019-01-17T19:35:41.007Z,9.07
2019-01-17T19:38:10.752Z,10.10
2019-01-17T19:40:40.203Z,7.77
2019-01-17T19:43:09.619Z,10.87
2019-01-17T19:45:39.068Z,13.43
2019-01-17T19:48:09.163Z,6.07
2019-01-17T19:50:39.875Z,11.17
2019-01-17T19:53:10.250Z,10.23
2019-01-17T19:55:39.613Z,9.03
2019-01-17T19:58:09.305Z,10.73
2019-01-17T20:00:38.855Z,10.77
2019-01-17T20:03:08.520Z,16.07
2019-01-17T20:05:38.473Z,8.10
2019-01-17T20:08:07.821Z,11.10
2019-01-17T20:10:38.015Z,11.30
2019-01-17T20:13:08.019Z,13.77
2019-01-17T20:15:37.541Z,13.90
2019-01-17T20:18:08.110Z,17.87
2019-01-17T20:20:37.534Z,13.43
2019-01-17T20:23:06.987Z,16.60
2019-01-17T20:25:36.718Z,11.67
2019-01-17T20:28:06.152Z,14.07
2019-01-17T20:30:36.080Z,12.37
2019-01-17T20:33:06.964Z,15.20
2019-01-17T20:35:36.615Z,15.07
2019-01-17T20:38:06.668Z,15.13
2019-01-17T20:40:36.025Z,12.57
2019-01-17T20:43:05.473Z,13.73
2019-01-17T20:45:34.916Z,12.93
2019-01-17T20:48:04.390Z,11.50
2019-01-17T20:50:34.980Z,10.77
2019-01-17T20:53:04.422Z,10.00
2019-01-17T20:55:33.762Z,11.57
2019-01-17T20:58:03.075Z,14.97
2019-01-17T21:01:02.110Z,8.10
2019-01-17T21:03:31.397Z,11.50
2019-01-17T21:06:00.693Z,10.33
2019-01-17T21:08:30.001Z,11.67
2019-01-17T21:10:59.452Z,10.60
2019-01-17T21:13:29.126Z,14.23
2019-01-17T21:16:01.339Z,10.37
2019-01-17T21:18:29.860Z,11.63
2019-01-17T21:20:59.135Z,11.83
2019-01-17T21:23:28.485Z,11.97
2019-01-17T21:25:57.788Z,12.07
2019-01-17T21:28:27.619Z,13.80
2019-01-17T21:30:56.966Z,10.80
2019-01-17T21:33:26.344Z,14.47
2019-01-17T21:36:14.780Z,11.90
2019-01-17T21:38:44.910Z,13.00
2019-01-17T21:41:14.677Z,14.50
2019-01-17T21:43:44.265Z,12.00
2019-01-17T21:46:14.100Z,14.40
2019-01-17T21:48:43.913Z,20.23
2019-01-17T21:51:13.283Z,14.20
2019-01-17T21:53:42.972Z,13.93
2019-01-17T21:56:12.339Z,14.57
2019-01-17T21:58:41.747Z,14.37
2019-01-17T22:01:11.381Z,16.60
2019-01-17T22:03:40.731Z,22.07
2019-01-17T22:06:10.158Z,17.70
2019-01-17T22:08:39.741Z,14.50
2019-01-17T22:11:09.142Z,15.83
2019-01-17T22:13:38.823Z,16.73
2019-01-17T22:16:08.158Z,17.23
2019-01-17T22:18:38.283Z,16.63
2019-01-17T22:21:07.664Z,17.30
2019-01-17T22:23:37.082Z,19.27
2019-01-17T22:26:06.664Z,19.37
2019-01-17T22:28:35.978Z,23.33
2019-01-17T22:31:05.323Z,18.27
2019-01-17T22:33:35.018Z,19.50
2019-01-17T22:36:04.778Z,20.73
2019-01-17T22:38:34.074Z,19.23
2019-01-17T22:41:03.654Z,24.83
2019-01-17T22:43:33.343Z,24.97
2019-01-17T22:46:02.692Z,19.67
2019-01-17T22:48:33.486Z,24.30
2019-01-17T22:51:03.137Z,23.23
2019-01-17T22:53:32.836Z,22.80
2019-01-17T22:56:02.189Z,24.07
2019-01-17T22:58:31.506Z,23.83
2019-01-17T23:01:27.220Z,20.17
2019-01-17T23:03:57.972Z,20.10
2019-01-17T23:06:27.608Z,22.87
2019-01-17T23:08:56.978Z,21.37
2019-01-17T23:11:37.032Z,20.90
2019-01-17T23:14:06.314Z,21.70
2019-01-17T23:16:35.588Z,21.20
2019-01-17T23:19:05.581Z,22.97
2019-01-17T23:21:34.855Z,18.13
2019-01-17T23:24:04.522Z,17.13
2019-01-17T23:26:33.832Z,20.07
2019-01-17T23:29:03.458Z,16.20
2019-01-17T23:31:32.817Z,16.77
2019-01-17T23:34:02.235Z,18.30
2019-01-17T23:36:31.585Z,16.00
2019-01-17T23:39:01.255Z,19.67
2019-01-17T23:41:30.676Z,15.90
2019-01-17T23:44:00.062Z,18.43
2019-01-17T23:46:29.499Z,16.00
2019-01-17T23:48:58.893Z,17.33
2019-01-17T23:51:28.192Z,16.73
2019-01-17T23:53:57.412Z,14.47
2019-01-17T23:56:26.743Z,12.83
2019-01-17T23:58:56.472Z,14.23
